createdAt,value
2023-03-23T15:59:10.933Z,98180.38
2023-03-23T16:01:57.476Z,98184.47
2023-03-23T16:04:45.280Z,98172.78
2023-03-23T16:07:32.545Z,98168.75
2023-03-23T16:10:21.285Z,98156.00
2023-03-23T16:13:07.217Z,98162.91
2023-03-23T16:15:52.720Z,98158.72
2023-03-23T16:18:38.054Z,98157.06
2023-03-23T16:21:23.334Z,98147.50
2023-03-23T16:24:09.876Z,98150.19
2023-03-23T16:26:55.521Z,98153.41
2023-03-23T16:35:18.105Z,98150.88
2023-03-23T16:38:08.323Z,98141.56
2023-03-23T16:40:54.783Z,98146.25
2023-03-23T16:43:40.284Z,98137.84
2023-03-23T16:46:25.861Z,98140.59
2023-03-23T16:49:11.574Z,98136.94
2023-03-23T16:51:57.059Z,98131.72
2023-03-23T16:54:43.024Z,98132.84
2023-03-23T16:57:28.929Z,98129.44
2023-03-23T17:00:20.342Z,98135.19
2023-03-23T17:03:06.038Z,98138.28
2023-03-23T17:05:52.476Z,98136.88
2023-03-23T17:08:38.029Z,98137.38
2023-03-23T17:11:23.428Z,98138.22
2023-03-23T17:14:08.804Z,98129.75
2023-03-23T17:16:54.411Z,98128.06
2023-03-23T17:19:40.177Z,98130.59
2023-03-23T17:22:26.550Z,98134.47
2023-03-23T17:25:12.411Z,98129.91
2023-03-23T17:28:05.567Z,98130.72
2023-03-23T17:30:53.420Z,98130.47
2023-03-23T17:33:38.890Z,98122.34
2023-03-23T17:36:24.905Z,98124.63
2023-03-23T17:39:10.511Z,98131.56
2023-03-23T17:41:55.970Z,98124.47
2023-03-23T17:44:41.983Z,98129.03
2023-03-23T17:47:27.708Z,98127.97
2023-03-23T17:50:13.481Z,98129.25
2023-03-23T17:53:00.624Z,98125.91
2023-03-23T17:55:46.503Z,98129.47
2023-03-23T17:58:32.358Z,98125.97
2023-03-23T18:01:18.099Z,98122.66
2023-03-23T18:04:04.838Z,98116.13
2023-03-23T18:06:50.575Z,98111.66
2023-03-23T18:09:36.087Z,98110.59
2023-03-23T18:12:21.783Z,98109.28
2023-03-23T18:15:08.396Z,98107.84
2023-03-23T18:17:54.120Z,98101.06
2023-03-23T18:20:39.527Z,98108.22
2023-03-23T18:23:25.009Z,98108.66
2023-03-23T18:26:12.958Z,98113.28
2023-03-23T18:28:58.766Z,98110.25
2023-03-23T18:31:44.366Z,98104.63
2023-03-23T18:34:32.122Z,98108.53
2023-03-23T18:37:17.645Z,98112.16
2023-03-23T18:40:05.501Z,98096.75
2023-03-23T18:42:51.200Z,98091.53
2023-03-23T18:45:37.899Z,98091.59
2023-03-23T18:48:24.225Z,98106.63
2023-03-23T18:51:10.117Z,98109.34
2023-03-23T18:53:55.666Z,98119.81
2023-03-23T18:56:41.131Z,98125.22
2023-03-23T18:59:30.406Z,98121.84
2023-03-23T19:02:18.475Z,98127.63
2023-03-23T19:05:04.363Z,98121.88
2023-03-23T19:07:49.781Z,98133.63
2023-03-23T19:10:41.567Z,98166.25
2023-03-23T19:13:29.238Z,98191.72
2023-03-23T19:16:14.931Z,98179.69
2023-03-23T19:19:02.006Z,98167.09
2023-03-23T19:21:47.513Z,98154.41
2023-03-23T19:24:33.552Z,98170.72
2023-03-23T19:27:21.023Z,98161.00
2023-03-23T19:30:08.110Z,98179.66
2023-03-23T19:32:53.508Z,98169.53
2023-03-23T19:35:39.850Z,98196.69
2023-03-23T19:38:25.453Z,98197.69
2023-03-23T19:41:11.693Z,98202.16
2023-03-23T19:43:57.392Z,98211.59
2023-03-23T19:46:42.647Z,98211.78
2023-03-23T19:49:28.113Z,98208.44
2023-03-23T19:52:14.956Z,98207.53
2023-03-23T19:55:01.699Z,98217.75
2023-03-23T19:57:47.507Z,98233.13
2023-03-23T20:00:34.921Z,98240.47
2023-03-23T20:03:21.822Z,98246.91
2023-03-23T20:06:15.048Z,98241.81
2023-03-23T20:09:01.410Z,98216.84
2023-03-23T20:11:46.944Z,98210.88
2023-03-23T20:14:33.076Z,98204.22
2023-03-23T20:17:18.751Z,98213.13
2023-03-23T20:20:10.166Z,98206.47
2023-03-23T20:22:59.037Z,98203.97
2023-03-23T20:25:44.688Z,98201.63
2023-03-23T20:28:30.651Z,98206.88
2023-03-23T20:31:23.243Z,98202.66
2023-03-23T20:34:13.101Z,98202.78
2023-03-23T20:36:59.842Z,98201.31
2023-03-23T20:39:46.160Z,98193.72
2023-03-23T20:42:33.547Z,98194.69
2023-03-23T20:45:20.237Z,98199.19
2023-03-23T20:48:06.466Z,98202.63
2023-03-23T20:50:52.196Z,98193.97
2023-03-23T20:53:39.629Z,98203.47
2023-03-23T20:56:25.732Z,98204.44
2023-03-23T20:59:11.797Z,98222.59
2023-03-23T21:01:57.390Z,98206.34
2023-03-23T21:04:45.289Z,98220.19
2023-03-23T21:07:30.719Z,98221.81
2023-03-23T21:10:16.880Z,98227.75
2023-03-23T21:13:02.413Z,98227.78
2023-03-23T21:15:47.662Z,98222.56
2023-03-23T21:18:33.241Z,98238.09
2023-03-23T21:21:18.882Z,98228.78
2023-03-23T21:24:04.446Z,98241.69
2023-03-23T21:26:50.163Z,98233.09
2023-03-23T21:29:35.435Z,98244.41
2023-03-23T21:32:21.100Z,98242.78
2023-03-23T21:35:07.219Z,98244.56
2023-03-23T21:37:53.732Z,98253.09
2023-03-23T21:40:40.245Z,98241.91
2023-03-23T21:43:29.696Z,98245.41
2023-03-23T21:46:18.480Z,98247.97
2023-03-23T21:49:04.999Z,98239.28
2023-03-23T21:51:50.939Z,98240.19
2023-03-23T21:54:36.488Z,98248.91
2023-03-23T21:57:22.095Z,98260.03
2023-03-23T22:00:12.045Z,98264.41
2023-03-23T22:02:57.667Z,98253.97
2023-03-23T22:05:43.492Z,98257.34
2023-03-23T22:08:30.205Z,98254.84
2023-03-23T22:11:20.309Z,98264.41
2023-03-23T22:14:06.819Z,98257.59
2023-03-23T22:16:52.571Z,98261.94
2023-03-23T22:19:39.455Z,98261.09
2023-03-23T22:22:24.777Z,98274.00
2023-03-23T22:25:10.656Z,98274.97
2023-03-23T22:27:55.922Z,98257.69
2023-03-23T22:30:41.532Z,98265.50
2023-03-23T22:33:26.935Z,98272.38
2023-03-23T22:36:13.051Z,98266.44
2023-03-23T22:38:59.168Z,98283.69
2023-03-23T22:41:44.831Z,98280.31
2023-03-23T22:44:30.453Z,98294.88
2023-03-23T22:47:16.297Z,98291.41
2023-03-23T22:50:02.059Z,98289.81
2023-03-23T22:52:47.629Z,98291.38
2023-03-23T22:55:33.220Z,98296.44
2023-03-23T22:58:19.439Z,98292.06
2023-03-23T23:01:08.739Z,98321.50
2023-03-23T23:03:54.327Z,98321.50
2023-03-23T23:06:39.557Z,98323.38
2023-03-23T23:09:25.184Z,98314.81
2023-03-23T23:12:12.506Z,98321.88
2023-03-23T23:14:58.876Z,98322.91
2023-03-23T23:17:44.476Z,98326.38
2023-03-23T23:20:29.687Z,98330.72
2023-03-23T23:23:15.593Z,98321.19
2023-03-23T23:26:01.610Z,98330.78
2023-03-23T23:28:48.729Z,98320.50
2023-03-23T23:31:34.789Z,98321.22
2023-03-23T23:34:19.946Z,98320.13
2023-03-23T23:37:05.867Z,98330.50
2023-03-23T23:39:51.773Z,98317.50
2023-03-23T23:42:37.422Z,98331.31
2023-03-23T23:45:23.147Z,98329.63
2023-03-23T23:48:09.575Z,98327.06
2023-03-23T23:50:55.090Z,98328.69
2023-03-23T23:53:42.636Z,98333.84
2023-03-23T23:56:28.714Z,98332.88
2023-03-23T23:59:13.950Z,98335.34
